Time;durP1;ratioP1;P1;durP2;ratioP2;P2;SDS_P1;SDS_P2;PMS_P1;PMS_P2;Temp;Humidity;BMP_temperature;BMP_pressure;BME280_temperature;BME280_humidity;BME280_pressure;Samples;Min_cycle;Max_cycle;Signal;HPM_P1;HPM_P2
2020/12/05 00:01:38;;;;;;;5.95;3.20;;;4.80;85.10;;;;;;4999087;28;20029;-87
2020/12/05 00:04:04;;;;;;;5.65;3.40;;;4.80;85.10;;;;;;4998919;28;20036;-88
2020/12/05 00:06:30;;;;;;;5.80;3.58;;;4.80;85.20;;;;;;5007413;28;20069;-87
2020/12/05 00:08:55;;;;;;;5.32;3.45;;;4.70;85.20;;;;;;5001957;28;20018;-87
2020/12/05 00:11:26;;;;;;;5.85;3.38;;;4.70;85.20;;;;;;5018282;28;20092;-87
2020/12/05 00:13:51;;;;;;;7.85;3.47;;;4.70;85.20;;;;;;5017271;28;20041;-87
2020/12/05 00:16:17;;;;;;;6.38;3.40;;;4.70;85.30;;;;;;5015910;28;20036;-87
2020/12/05 00:18:43;;;;;;;5.25;3.15;;;4.70;85.30;;;;;;5003290;28;20409;-87
2020/12/05 00:21:09;;;;;;;5.88;3.50;;;4.70;85.70;;;;;;5016359;28;20044;-88
2020/12/05 00:23:34;;;;;;;6.10;3.20;;;4.70;85.40;;;;;;5025472;28;20024;-87
2020/12/05 00:26:00;;;;;;;6.22;3.50;;;4.70;85.40;;;;;;5013388;28;20049;-87
2020/12/05 00:28:29;;;;;;;5.68;3.50;;;4.60;85.40;;;;;;5001848;28;20406;-88
2020/12/05 00:30:54;;;;;;;6.75;3.80;;;4.60;85.50;;;;;;5028270;28;20352;-87
2020/12/05 00:33:20;;;;;;;6.15;3.53;;;4.60;85.50;;;;;;5016053;28;20033;-87
2020/12/05 00:35:46;;;;;;;7.80;4.13;;;4.60;85.50;;;;;;5022704;28;20466;-87
2020/12/05 00:38:12;;;;;;;6.38;4.03;;;4.60;85.60;;;;;;5015884;28;20029;-87
2020/12/05 00:40:40;;;;;;;7.65;3.80;;;4.60;85.60;;;;;;5001500;28;20044;-87
2020/12/05 00:43:06;;;;;;;6.55;3.70;;;4.50;85.60;;;;;;5026186;28;20038;-87
2020/12/05 00:45:32;;;;;;;7.40;4.10;;;4.50;85.70;;;;;;5006011;28;20025;-87
2020/12/05 00:48:01;;;;;;;5.75;3.50;;;4.50;85.70;;;;;;5004911;28;20028;-87
2020/12/05 00:50:29;;;;;;;6.80;4.05;;;4.50;85.80;;;;;;5033301;28;20053;-88
2020/12/05 00:52:55;;;;;;;5.85;3.53;;;4.50;85.80;;;;;;5005803;28;20475;-87
2020/12/05 00:55:42;;;;;;;7.50;3.53;;;4.50;85.90;;;;;;5002408;28;20034;-87
2020/12/05 00:58:08;;;;;;;7.78;3.65;;;4.50;86.00;;;;;;5036175;28;20099;-88
2020/12/05 01:00:37;;;;;;;6.15;3.38;;;4.50;86.00;;;;;;5032005;28;20029;-87
2020/12/05 01:03:36;;;;;;;13.68;5.18;;;4.50;86.00;;;;;;5021097;28;20491;-87
2020/12/05 01:06:02;;;;;;;7.20;4.22;;;4.40;86.00;;;;;;5031895;28;20034;-87
2020/12/05 01:08:28;;;;;;;6.40;3.30;;;4.40;86.00;;;;;;5035311;28;20380;-87
2020/12/05 01:10:54;;;;;;;6.65;3.58;;;4.40;86.00;;;;;;5020703;28;20025;-87
2020/12/05 01:13:20;;;;;;;5.95;3.42;;;4.40;86.10;;;;;;5018000;28;20025;-88
2020/12/05 01:15:46;;;;;;;5.68;3.10;;;4.30;86.10;;;;;;5001161;28;20092;-88
2020/12/05 01:18:11;;;;;;;6.63;4.03;;;4.30;86.20;;;;;;5004371;28;20102;-87
2020/12/05 01:20:40;;;;;;;6.90;3.45;;;4.30;86.20;;;;;;5006815;28;20467;-87
2020/12/05 01:23:06;;;;;;;6.00;3.40;;;4.30;86.80;;;;;;5032520;28;20033;-87
2020/12/05 01:25:32;;;;;;;5.22;3.20;;;4.30;86.20;;;;;;5004067;28;20025;-87
2020/12/05 01:27:57;;;;;;;6.65;3.50;;;4.20;86.10;;;;;;5020218;28;20029;-87
2020/12/05 01:30:23;;;;;;;6.50;3.30;;;4.20;86.10;;;;;;5036553;28;20534;-87
2020/12/05 01:32:49;;;;;;;5.82;3.20;;;4.20;86.10;;;;;;5020549;28;20040;-88
2020/12/05 01:35:15;;;;;;;6.43;3.20;;;4.20;86.20;;;;;;5050318;28;20025;-87
2020/12/05 01:37:40;;;;;;;5.00;3.30;;;4.20;86.20;;;;;;5000386;28;20628;-87
2020/12/05 01:40:07;;;;;;;6.05;3.30;;;4.20;86.30;;;;;;5015850;28;20033;-87
2020/12/05 01:42:32;;;;;;;5.65;3.75;;;4.10;86.30;;;;;;5028811;28;20120;-87
2020/12/05 01:44:58;;;;;;;4.70;2.90;;;4.10;86.30;;;;;;4994696;28;20164;-88
2020/12/05 01:47:27;;;;;;;6.03;3.35;;;4.10;86.40;;;;;;5017839;28;20017;-88
2020/12/05 01:49:53;;;;;;;5.90;3.55;;;4.10;86.40;;;;;;5016273;28;20526;-88
2020/12/05 01:52:20;;;;;;;7.10;3.28;;;4.10;86.50;;;;;;5002758;28;20023;-88
2020/12/05 01:54:50;;;;;;;6.22;3.00;;;4.10;86.50;;;;;;5009783;28;20072;-88
2020/12/05 01:57:19;;;;;;;6.28;2.92;;;4.00;86.40;;;;;;5029980;28;20105;-87
2020/12/05 01:59:45;;;;;;;5.88;3.33;;;4.00;86.40;;;;;;5011029;28;20030;-88
2020/12/05 02:02:10;;;;;;;5.60;3.28;;;4.00;86.50;;;;;;4996006;28;20083;-87
2020/12/05 02:08:21;;;;;;;6.13;3.15;;;4.00;86.50;;;;;;5033053;28;20485;-86
2020/12/05 02:10:50;;;;;;;5.72;3.13;;;4.00;86.50;;;;;;5032932;28;20108;-87
2020/12/05 02:13:32;;;;;;;5.43;3.17;;;3.90;86.60;;;;;;5016265;28;20033;-87
2020/12/05 02:16:00;;;;;;;6.60;3.70;;;3.90;86.70;;;;;;5032883;28;20120;-87
2020/12/05 02:18:33;;;;;;;6.28;3.10;;;3.90;86.80;;;;;;4986703;28;20553;-87
2020/12/05 02:21:03;;;;;;;5.28;2.67;;;3.90;86.80;;;;;;5032542;28;20047;-87
2020/12/05 02:23:29;;;;;;;5.60;3.65;;;3.90;86.90;;;;;;5032540;28;20029;-87
2020/12/05 02:26:06;;;;;;;5.43;3.10;;;3.90;87.00;;;;;;5032404;28;20171;-86
2020/12/05 02:28:33;;;;;;;5.53;2.90;;;3.90;87.00;;;;;;5032213;28;20024;-87
2020/12/05 02:30:59;;;;;;;5.20;2.80;;;3.90;87.10;;;;;;5032351;28;20578;-86
2020/12/05 02:33:25;;;;;;;5.20;3.30;;;3.90;87.20;;;;;;5032327;28;20009;-86
2020/12/05 02:35:51;;;;;;;6.45;3.40;;;3.90;87.20;;;;;;5032278;28;20026;-87
2020/12/05 02:38:23;;;;;;;5.30;2.88;;;3.90;87.30;;;;;;5018287;28;20395;-87
2020/12/05 02:40:52;;;;;;;6.00;3.30;;;3.90;87.30;;;;;;5031891;28;20044;-86
2020/12/05 02:43:24;;;;;;;6.30;3.30;;;3.90;87.40;;;;;;5025541;28;20036;-87
2020/12/05 02:45:59;;;;;;;5.65;3.10;;;3.80;87.40;;;;;;5020401;28;20501;-87
2020/12/05 02:48:27;;;;;;;5.68;3.25;;;3.90;87.50;;;;;;5000046;28;20033;-87
2020/12/05 02:50:56;;;;;;;6.35;3.53;;;3.90;87.50;;;;;;5012260;28;20034;-87
2020/12/05 02:53:21;;;;;;;7.25;3.10;;;3.90;87.50;;;;;;5015896;28;20066;-87
2020/12/05 02:55:47;;;;;;;5.40;3.20;;;3.90;87.60;;;;;;5031722;28;20387;-86
2020/12/05 02:58:13;;;;;;;6.97;3.78;;;3.90;87.60;;;;;;5031586;28;20036;-87
2020/12/05 03:00:44;;;;;;;6.00;3.45;;;3.90;87.60;;;;;;5024530;28;20021;-87
2020/12/05 03:03:10;;;;;;;6.35;3.40;;;3.90;87.60;;;;;;4995979;28;20029;-87
2020/12/05 03:05:36;;;;;;;5.82;3.25;;;3.90;87.70;;;;;;5031897;28;20079;-87
2020/12/05 03:08:02;;;;;;;5.07;3.08;;;3.90;87.80;;;;;;5031801;28;20036;-87
2020/12/05 03:10:28;;;;;;;6.05;3.67;;;3.90;87.80;;;;;;5027957;28;20030;-87
2020/12/05 03:13:02;;;;;;;5.60;3.03;;;3.90;87.80;;;;;;5002695;28;20018;-87
2020/12/05 03:15:28;;;;;;;5.68;3.20;;;3.90;87.80;;;;;;5026407;28;20026;-87
2020/12/05 03:17:56;;;;;;;6.18;3.72;;;4.00;87.90;;;;;;5020918;28;20028;-87
2020/12/05 03:20:22;;;;;;;6.40;3.42;;;3.90;87.90;;;;;;5015253;28;20025;-87
2020/12/05 03:22:48;;;;;;;5.63;3.25;;;3.90;87.90;;;;;;5015591;28;20020;-87
2020/12/05 03:25:14;;;;;;;5.85;3.47;;;3.90;88.00;;;;;;5012621;28;20022;-87
2020/12/05 03:27:42;;;;;;;5.20;3.17;;;3.90;88.00;;;;;;5015280;28;20053;-87
2020/12/05 03:30:08;;;;;;;5.43;2.90;;;3.90;88.00;;;;;;5020377;28;20025;-87
2020/12/05 03:32:34;;;;;;;6.57;3.20;;;3.90;88.10;;;;;;5029268;28;20021;-87
2020/12/05 03:35:02;;;;;;;5.45;3.00;;;3.90;88.10;;;;;;5031964;28;20032;-87
2020/12/05 03:37:29;;;;;;;4.32;2.67;;;3.90;88.20;;;;;;5031590;28;20471;-86
2020/12/05 03:39:54;;;;;;;5.40;2.97;;;3.90;88.20;;;;;;5023565;28;20030;-87
2020/12/05 03:42:21;;;;;;;5.55;3.08;;;3.90;88.20;;;;;;5025820;28;20889;-87
2020/12/05 03:44:47;;;;;;;5.85;3.10;;;3.90;88.30;;;;;;5018222;28;20025;-86
2020/12/05 03:47:13;;;;;;;5.70;3.28;;;3.90;88.30;;;;;;5012996;28;20044;-87
2020/12/05 03:49:39;;;;;;;8.00;2.80;;;3.90;88.40;;;;;;5049852;28;20048;-86
2020/12/05 03:52:05;;;;;;;6.78;2.97;;;3.90;88.40;;;;;;5035269;28;20021;-87
2020/12/05 03:54:31;;;;;;;6.35;3.20;;;3.90;88.40;;;;;;5035323;28;20032;-86
2020/12/05 03:56:57;;;;;;;4.88;3.08;;;3.90;88.50;;;;;;5035323;28;20109;-86
2020/12/05 03:59:26;;;;;;;7.93;3.55;;;3.90;88.50;;;;;;5035182;28;20127;-87
2020/12/05 04:01:52;;;;;;;5.25;2.95;;;3.90;88.50;;;;;;5029268;28;20125;-87
2020/12/05 04:04:18;;;;;;;5.22;2.97;;;3.80;88.50;;;;;;5007331;28;20084;-87
2020/12/05 04:06:44;;;;;;;4.95;3.08;;;3.90;88.50;;;;;;5032971;28;20022;-86
2020/12/05 04:09:10;;;;;;;4.95;2.97;;;3.90;88.60;;;;;;5034809;28;20029;-86
2020/12/05 04:11:38;;;;;;;7.97;3.08;;;3.90;88.60;;;;;;5021078;28;20105;-86
2020/12/05 04:14:05;;;;;;;5.60;3.40;;;3.80;88.60;;;;;;5034962;28;20473;-87
2020/12/05 04:16:30;;;;;;;5.78;3.40;;;3.80;88.60;;;;;;5015453;28;20033;-87
2020/12/05 04:18:56;;;;;;;5.72;3.20;;;3.80;88.60;;;;;;5028629;28;20029;-87
2020/12/05 04:21:22;;;;;;;6.40;2.95;;;3.80;88.70;;;;;;5027073;28;20261;-86
2020/12/05 04:23:47;;;;;;;5.32;3.00;;;3.80;88.60;;;;;;5014760;28;20034;-86
2020/12/05 04:26:13;;;;;;;5.43;3.03;;;3.80;88.60;;;;;;5008747;28;20030;-86
2020/12/05 04:28:39;;;;;;;5.32;3.35;;;3.80;88.60;;;;;;5034430;28;20075;-86
2020/12/05 04:31:05;;;;;;;4.28;2.70;;;3.80;88.60;;;;;;5034492;28;20087;-86
2020/12/05 04:33:33;;;;;;;7.63;3.20;;;3.80;88.70;;;;;;5034328;28;20025;-86
2020/12/05 04:35:59;;;;;;;6.45;3.90;;;3.80;88.70;;;;;;5017866;28;20087;-88
2020/12/05 04:38:24;;;;;;;8.50;4.43;;;3.80;88.70;;;;;;4998686;28;20026;-86
2020/12/05 04:40:54;;;;;;;7.40;4.10;;;3.70;88.50;;;;;;5001406;28;20029;-87
2020/12/05 04:43:20;;;;;;;6.63;4.20;;;3.70;88.70;;;;;;5018482;28;20049;-87
2020/12/05 04:45:53;;;;;;;8.00;4.05;;;3.60;88.80;;;;;;5017944;28;20060;-86
2020/12/05 04:48:20;;;;;;;5.70;3.80;;;3.70;88.90;;;;;;5034414;28;20025;-86
2020/12/05 04:50:47;;;;;;;7.20;3.80;;;3.60;88.90;;;;;;5022019;28;20049;-86
2020/12/05 04:53:18;;;;;;;6.22;3.42;;;3.60;88.90;;;;;;5013156;28;20030;-86
2020/12/05 04:55:44;;;;;;;5.35;3.40;;;3.60;88.80;;;;;;5025793;28;20132;-87
2020/12/05 04:58:17;;;;;;;5.60;3.10;;;3.70;88.80;;;;;;5033240;28;20018;-86
2020/12/05 05:00:44;;;;;;;5.03;3.22;;;3.60;88.80;;;;;;5033515;28;20025;-86
2020/12/05 05:03:15;;;;;;;6.30;3.00;;;3.60;88.80;;;;;;5016642;28;20030;-86
2020/12/05 05:05:41;;;;;;;7.07;3.40;;;3.60;88.80;;;;;;5008404;28;20018;-86
2020/12/05 05:08:06;;;;;;;6.07;3.40;;;3.60;88.70;;;;;;5012654;28;20025;-86
2020/12/05 05:10:34;;;;;;;5.55;3.03;;;3.60;88.80;;;;;;5033996;28;20390;-86
2020/12/05 05:13:22;;;;;;;6.18;3.75;;;3.60;88.80;;;;;;5017782;28;20471;-87
2020/12/05 05:15:47;;;;;;;5.82;3.17;;;3.50;88.80;;;;;;5007517;28;20032;-86
2020/12/05 05:18:14;;;;;;;6.45;3.40;;;3.50;88.80;;;;;;5017129;28;20379;-87
2020/12/05 05:20:44;;;;;;;7.35;3.08;;;3.50;88.80;;;;;;5020380;28;20013;-87
2020/12/05 05:23:18;;;;;;;6.00;3.50;;;3.50;88.80;;;;;;5033385;28;20029;-87
2020/12/05 05:25:53;;;;;;;6.28;3.20;;;3.40;88.80;;;;;;5019847;28;20024;-87
2020/12/05 05:28:27;;;;;;;5.85;3.30;;;3.40;88.80;;;;;;5033612;28;20028;-87
2020/12/05 05:33:49;;;;;;;6.57;3.30;;;3.40;88.80;;;;;;5029616;28;20032;-86
2020/12/05 05:36:19;;;;;;;5.97;3.42;;;3.40;88.80;;;;;;5022698;28;20554;-87
2020/12/05 05:39:06;;;;;;;5.43;3.22;;;3.40;88.80;;;;;;5032363;28;20048;-86
2020/12/05 05:42:16;;;;;;;5.10;2.90;;;3.40;88.80;;;;;;5013635;28;20408;-87
2020/12/05 05:44:41;;;;;;;6.28;2.78;;;3.30;88.80;;;;;;5030899;28;20052;-87
2020/12/05 05:47:09;;;;;;;5.63;3.33;;;3.30;88.80;;;;;;5016766;28;20049;-87
2020/12/05 05:49:34;;;;;;;6.07;3.08;;;3.30;88.90;;;;;;5013782;28;20022;-87
2020/12/05 05:52:02;;;;;;;5.03;3.00;;;3.30;88.90;;;;;;5013617;28;20029;-87
2020/12/05 05:54:29;;;;;;;6.25;3.40;;;3.30;89.00;;;;;;4999944;28;20057;-87
2020/12/05 05:57:05;;;;;;;6.75;3.20;;;3.30;89.00;;;;;;5030975;28;20022;-87
2020/12/05 05:59:42;;;;;;;7.65;3.50;;;3.30;89.00;;;;;;5021805;28;20029;-87
2020/12/05 06:02:10;;;;;;;6.82;3.45;;;3.30;89.00;;;;;;5029826;28;20025;-87
2020/12/05 06:04:47;;;;;;;6.60;3.60;;;3.20;89.00;;;;;;5032570;28;20061;-87
2020/12/05 06:07:17;;;;;;;6.22;3.67;;;3.20;89.00;;;;;;5018432;28;20022;-87
2020/12/05 06:09:46;;;;;;;5.78;3.97;;;3.20;89.00;;;;;;5030841;28;20475;-87
2020/12/05 06:12:21;;;;;;;6.78;3.40;;;3.20;89.00;;;;;;5030863;28;20025;-87
2020/12/05 06:14:48;;;;;;;7.03;3.80;;;3.20;89.10;;;;;;4996487;28;20025;-87
2020/12/05 06:17:18;;;;;;;7.03;4.22;;;3.20;89.10;;;;;;5012930;28;20030;-87
2020/12/05 06:19:46;;;;;;;6.60;3.95;;;3.10;89.00;;;;;;5030660;28;20025;-87
2020/12/05 06:22:34;;;;;;;5.85;3.47;;;3.20;89.10;;;;;;5030788;28;20025;-87
2020/12/05 06:25:04;;;;;;;7.07;3.92;;;3.20;89.10;;;;;;5031381;28;20033;-87
2020/12/05 06:27:35;;;;;;;6.32;3.70;;;3.10;89.00;;;;;;5032284;28;20056;-87
2020/12/05 06:30:08;;;;;;;8.00;4.10;;;3.10;89.00;;;;;;5032181;28;20403;-87
2020/12/05 06:32:46;;;;;;;5.75;3.72;;;3.10;89.00;;;;;;5032317;28;20028;-87
2020/12/05 06:35:17;;;;;;;7.80;3.70;;;3.10;89.00;;;;;;5032429;28;20052;-86
2020/12/05 06:37:43;;;;;;;6.05;3.78;;;3.10;89.00;;;;;;5032107;28;20021;-86
2020/12/05 06:40:09;;;;;;;6.80;3.58;;;3.10;89.00;;;;;;5032096;28;20029;-87
2020/12/05 06:42:40;;;;;;;8.73;3.92;;;3.10;89.10;;;;;;5015638;28;20036;-86
2020/12/05 06:45:06;;;;;;;5.88;3.42;;;3.00;89.00;;;;;;5015492;28;20474;-87
2020/12/05 06:47:33;;;;;;;6.93;3.92;;;3.00;89.10;;;;;;5031900;28;20108;-86
2020/12/05 06:49:59;;;;;;;5.85;3.63;;;3.00;89.10;;;;;;5032532;28;20422;-86
2020/12/05 06:52:25;;;;;;;7.53;4.15;;;3.00;89.10;;;;;;5012576;28;20022;-86
2020/12/05 06:54:56;;;;;;;7.63;4.18;;;3.00;89.10;;;;;;5031533;28;20117;-86
2020/12/05 06:57:25;;;;;;;7.43;3.85;;;2.90;89.10;;;;;;5031941;28;20025;-86
2020/12/05 07:00:09;;;;;;;9.27;4.50;;;3.00;89.20;;;;;;5032030;28;20498;-86
2020/12/05 07:02:35;;;;;;;8.65;3.97;;;3.00;89.00;;;;;;5014802;28;20033;-86
2020/12/05 07:05:19;;;;;;;6.47;3.85;;;3.00;89.20;;;;;;5014408;28;20117;-86
2020/12/05 07:07:53;;;;;;;6.72;4.68;;;2.90;89.20;;;;;;5031819;28;20041;-87
2020/12/05 07:10:39;;;;;;;6.25;4.05;;;2.90;89.20;;;;;;5032224;28;20021;-86
2020/12/05 07:13:19;;;;;;;6.07;4.00;;;2.90;89.40;;;;;;5017459;28;20068;-86
2020/12/05 07:15:45;;;;;;;6.97;3.65;;;2.90;89.40;;;;;;5023794;28;20018;-86
2020/12/05 07:18:24;;;;;;;5.85;3.58;;;2.80;89.40;;;;;;4996181;28;20049;-86
2020/12/05 07:20:51;;;;;;;6.43;3.95;;;3.00;89.60;;;;;;5033387;28;20083;-86
2020/12/05 07:23:16;;;;;;;9.40;4.30;;;2.90;89.60;;;;;;5003222;28;20060;-85
2020/12/05 07:25:43;;;;;;;8.10;4.80;;;2.90;89.70;;;;;;5037021;28;20049;-86
2020/12/05 07:28:08;;;;;;;7.35;4.60;;;2.90;89.60;;;;;;5003944;28;20034;-86
2020/12/05 07:30:35;;;;;;;7.55;4.00;;;2.90;89.80;;;;;;5019389;28;20032;-86
2020/12/05 07:33:04;;;;;;;7.25;4.25;;;2.90;89.70;;;;;;5020233;28;20052;-86
2020/12/05 07:35:30;;;;;;;7.07;3.90;;;2.90;89.70;;;;;;5021292;28;20029;-86
2020/12/05 07:37:56;;;;;;;7.85;3.90;;;2.90;89.80;;;;;;5004118;28;20056;-86
2020/12/05 07:40:29;;;;;;;6.97;4.05;;;2.90;89.80;;;;;;5020250;28;20069;-86
2020/12/05 07:42:55;;;;;;;7.15;3.80;;;2.90;89.80;;;;;;5038516;28;20029;-86
2020/12/05 07:45:21;;;;;;;7.97;3.72;;;2.90;89.90;;;;;;5036886;28;20470;-86
2020/12/05 07:48:10;;;;;;;6.03;3.50;;;2.90;89.90;;;;;;5038881;28;20436;-86
2020/12/05 07:50:35;;;;;;;6.95;3.90;;;2.90;90.00;;;;;;5019443;28;20022;-86
2020/12/05 07:53:06;;;;;;;5.75;3.70;;;2.90;90.00;;;;;;5018000;28;20026;-86
2020/12/05 07:55:32;;;;;;;7.10;3.95;;;2.90;89.90;;;;;;5031419;28;20017;-86
2020/12/05 07:57:58;;;;;;;6.05;3.60;;;2.90;90.00;;;;;;5006375;28;20355;-86
2020/12/05 08:00:24;;;;;;;6.13;3.83;;;2.90;90.00;;;;;;5020136;28;20037;-86
2020/12/05 08:06:18;;;;;;;7.78;4.15;;;2.90;90.00;;;;;;4997373;28;20077;-85
2020/12/05 08:08:52;;;;;;;9.48;5.25;;;3.00;90.00;;;;;;4977624;28;20092;-85
2020/12/05 08:11:33;;;;;;;11.15;5.95;;;2.90;90.00;;;;;;4975505;28;20560;-85
2020/12/05 08:13:59;;;;;;;10.73;5.60;;;2.90;90.00;;;;;;4963107;28;20098;-85
2020/12/05 08:16:24;;;;;;;12.73;7.22;;;2.80;90.00;;;;;;4962260;28;20058;-86
2020/12/05 08:19:06;;;;;;;10.85;6.90;;;2.80;90.30;;;;;;4946899;28;20058;-86
2020/12/05 08:22:08;;;;;;;14.30;7.40;;;2.70;90.80;;;;;;4981573;28;20109;-85
2020/12/05 08:24:55;;;;;;;13.35;7.50;;;2.70;90.60;;;;;;4999372;28;20052;-85
2020/12/05 08:34:33;;;;;;;14.93;9.13;;;2.60;91.60;;;;;;4956492;28;20128;-93
2020/12/05 08:37:15;;;;;;;17.80;9.40;;;2.70;92.20;;;;;;4943705;29;20024;-94
2020/12/05 08:40:16;;;;;;;15.32;9.38;;;2.60;92.90;;;;;;4938912;29;20047;-93
2020/12/05 08:43:24;;;;;;;14.27;9.00;;;2.70;93.40;;;;;;4928921;29;20035;-93
2020/12/05 08:45:58;;;;;;;12.25;8.18;;;2.70;93.60;;;;;;4912838;29;20097;-86
2020/12/05 08:48:48;;;;;;;13.70;8.52;;;2.90;93.50;;;;;;4892766;29;20119;-86
2020/12/05 08:51:41;;;;;;;14.93;9.10;;;3.00;93.40;;;;;;4857052;29;20037;-86
2020/12/05 08:54:07;;;;;;;11.77;7.03;;;3.10;93.50;;;;;;4893566;29;20040;-86
2020/12/05 08:56:33;;;;;;;11.82;7.68;;;3.20;93.30;;;;;;4910618;29;20115;-86
2020/12/05 08:58:59;;;;;;;11.48;7.68;;;3.20;93.30;;;;;;4953874;28;20034;-86
2020/12/05 09:01:41;;;;;;;10.77;7.22;;;3.40;93.30;;;;;;4940297;28;20054;-86
2020/12/05 09:04:11;;;;;;;10.40;6.43;;;3.40;93.10;;;;;;4956350;28;20164;-86
2020/12/05 09:06:37;;;;;;;8.98;6.07;;;3.50;93.00;;;;;;4956127;28;20424;-87
2020/12/05 09:09:03;;;;;;;12.75;7.05;;;3.60;92.90;;;;;;4941459;28;20154;-85
2020/12/05 09:11:29;;;;;;;9.57;6.00;;;3.60;92.70;;;;;;4956955;28;20134;-85
2020/12/05 09:13:55;;;;;;;8.13;5.18;;;3.70;92.70;;;;;;4940939;28;20031;-85
2020/12/05 09:16:31;;;;;;;8.55;5.45;;;3.80;92.70;;;;;;4941177;28;20109;-85
2020/12/05 09:18:59;;;;;;;7.88;5.20;;;3.80;92.60;;;;;;4957174;28;20034;-85
2020/12/05 09:21:25;;;;;;;13.25;8.23;;;3.90;92.50;;;;;;4941083;28;20038;-86
2020/12/05 09:24:06;;;;;;;10.70;6.95;;;3.90;92.60;;;;;;4955992;28;20042;-86
2020/12/05 09:26:33;;;;;;;12.82;8.15;;;4.00;92.60;;;;;;4945855;28;20039;-86
2020/12/05 09:28:59;;;;;;;11.90;7.40;;;4.00;92.60;;;;;;4983910;28;20049;-86
2020/12/05 09:31:25;;;;;;;11.40;7.55;;;4.10;92.90;;;;;;4966714;28;20035;-86
2020/12/05 09:33:51;;;;;;;10.50;7.50;;;4.10;92.50;;;;;;4964520;28;20085;-94
2020/12/05 09:36:16;;;;;;;10.05;6.65;;;4.20;92.50;;;;;;4983143;28;20495;-94
2020/12/05 09:38:42;;;;;;;10.65;6.60;;;4.20;92.40;;;;;;4962182;28;20451;-86
2020/12/05 09:41:08;;;;;;;11.50;6.85;;;4.30;92.50;;;;;;4970157;28;20498;-86
2020/12/05 09:43:33;;;;;;;10.73;7.30;;;4.30;92.40;;;;;;4960528;28;20034;-86
2020/12/05 09:45:59;;;;;;;11.68;7.55;;;4.40;92.30;;;;;;4971720;28;20030;-92
2020/12/05 09:48:25;;;;;;;8.65;5.93;;;4.50;92.30;;;;;;4963849;28;20121;-90
2020/12/05 09:50:50;;;;;;;8.98;5.80;;;4.50;92.20;;;;;;4972903;28;20027;-92
2020/12/05 09:53:16;;;;;;;10.45;5.30;;;4.50;92.00;;;;;;4995549;28;20077;-91
2020/12/05 09:55:42;;;;;;;8.05;5.95;;;4.60;91.90;;;;;;4986596;28;20369;-91
2020/12/05 09:58:08;;;;;;;10.55;5.13;;;4.70;91.80;;;;;;4974861;28;20039;-92
2020/12/05 10:00:34;;;;;;;9.02;5.95;;;4.70;91.70;;;;;;4978072;28;20089;-91
2020/12/05 10:02:59;;;;;;;7.78;5.20;;;4.80;91.60;;;;;;4970943;28;20027;-90
2020/12/05 10:05:25;;;;;;;9.18;5.32;;;4.80;91.40;;;;;;4977937;28;20046;-90
2020/12/05 10:08:09;;;;;;;8.57;5.18;;;4.80;91.20;;;;;;4962059;28;20030;-87
2020/12/05 10:10:34;;;;;;;11.27;5.38;;;4.80;91.10;;;;;;4953465;28;20037;-88
2020/12/05 10:13:00;;;;;;;7.75;4.65;;;4.90;91.10;;;;;;4967686;28;20027;-91
2020/12/05 10:15:26;;;;;;;7.38;4.25;;;4.90;91.30;;;;;;4971822;28;20023;-88
2020/12/05 10:17:51;;;;;;;8.20;4.40;;;5.00;91.00;;;;;;4936073;28;20029;-87
2020/12/05 10:20:35;;;;;;;8.25;4.93;;;5.20;90.90;;;;;;4961076;28;20030;-88
2020/12/05 10:23:01;;;;;;;6.93;4.00;;;5.20;90.80;;;;;;4965148;28;20031;-88
2020/12/05 10:25:42;;;;;;;7.82;4.65;;;5.20;90.90;;;;;;4960690;28;20034;-88
2020/12/05 10:28:07;;;;;;;8.30;4.18;;;5.30;90.80;;;;;;4964851;28;20117;-88
2020/12/05 10:30:33;;;;;;;8.30;4.55;;;5.30;90.30;;;;;;4972163;28;20118;-87
2020/12/05 10:32:59;;;;;;;6.68;4.20;;;5.40;90.20;;;;;;4943556;28;20384;-88
2020/12/05 10:35:24;;;;;;;6.00;3.80;;;5.40;90.20;;;;;;4979966;28;20034;-88
2020/12/05 10:37:50;;;;;;;6.53;4.22;;;5.40;90.10;;;;;;4960561;28;20049;-88
2020/12/05 10:40:16;;;;;;;7.65;4.35;;;5.50;90.20;;;;;;4951144;28;20361;-88
2020/12/05 10:42:41;;;;;;;6.85;4.18;;;5.60;90.30;;;;;;4964543;28;20121;-91
2020/12/05 10:45:07;;;;;;;6.30;4.00;;;5.60;90.10;;;;;;4946050;28;20034;-91
2020/12/05 10:47:33;;;;;;;6.57;3.78;;;5.60;89.40;;;;;;4946160;28;20037;-92
2020/12/05 10:50:01;;;;;;;7.35;3.80;;;5.70;90.00;;;;;;4942737;28;20046;-91
2020/12/05 10:52:27;;;;;;;5.90;3.92;;;5.80;89.80;;;;;;4964724;28;20035;-92
2020/12/05 10:55:02;;;;;;;8.55;3.67;;;5.80;89.00;;;;;;4993060;28;20145;-91
2020/12/05 10:57:30;;;;;;;6.55;4.15;;;5.80;88.60;;;;;;4961036;28;20418;-92
2020/12/05 11:00:34;;;;;;;6.97;3.80;;;6.00;89.30;;;;;;4958327;28;20123;-91
2020/12/05 11:03:00;;;;;;;8.40;3.88;;;6.00;89.30;;;;;;4981848;28;20384;-91
2020/12/05 11:05:26;;;;;;;7.80;4.40;;;6.10;89.50;;;;;;4954808;28;20065;-92
2020/12/05 11:07:52;;;;;;;5.70;3.88;;;6.10;89.30;;;;;;4962068;28;20135;-92
2020/12/05 11:10:19;;;;;;;6.13;3.78;;;6.30;87.40;;;;;;4960282;28;20027;-90
2020/12/05 11:12:45;;;;;;;6.78;3.42;;;6.30;87.70;;;;;;4950080;28;20375;-92
2020/12/05 11:15:10;;;;;;;4.95;2.92;;;6.40;86.80;;;;;;4962829;28;20113;-91
2020/12/05 11:17:36;;;;;;;5.00;2.75;;;6.50;86.60;;;;;;4964269;28;20097;-91
2020/12/05 11:20:02;;;;;;;4.47;2.47;;;6.60;85.60;;;;;;4961775;28;20054;-91
2020/12/05 11:22:33;;;;;;;5.88;2.95;;;6.70;85.30;;;;;;4951875;28;20446;-91
2020/12/05 11:24:59;;;;;;;;;;;6.80;83.90;;;;;;4964012;28;20042;-90
2020/12/05 11:27:31;;;;;;;7.13;2.65;;;6.80;82.80;;;;;;4964204;28;19918;-90
2020/12/05 11:30:19;;;;;;;4.63;2.50;;;6.80;83.10;;;;;;4948981;28;20026;-90
2020/12/05 11:32:45;;;;;;;4.82;2.95;;;6.90;83.60;;;;;;4968147;28;20022;-89
2020/12/05 11:35:57;;;;;;;6.80;3.00;;;7.00;83.70;;;;;;4973183;28;20030;-88
2020/12/05 11:39:08;;;;;;;5.50;2.80;;;7.10;81.00;;;;;;4973790;28;20045;-89
2020/12/05 11:41:38;;;;;;;6.50;3.42;;;7.20;82.00;;;;;;4961142;28;20035;-90
2020/12/05 11:44:05;;;;;;;6.18;2.53;;;7.20;80.80;;;;;;4974459;28;20031;-88
2020/12/05 11:46:43;;;;;;;6.38;2.78;;;7.30;80.60;;;;;;4986987;28;20027;-90
2020/12/05 11:49:55;;;;;;;6.85;2.65;;;7.30;80.40;;;;;;4988038;28;20026;-89
2020/12/05 11:55:59;;;;;;;6.57;2.40;;;7.30;78.50;;;;;;4952784;28;20018;-90
2020/12/05 11:58:25;;;;;;;4.90;2.55;;;7.30;77.60;;;;;;4982009;28;20431;-90
2020/12/05 12:00:51;;;;;;;6.03;2.47;;;7.40;77.90;;;;;;4968681;28;20019;-89
2020/12/05 12:03:17;;;;;;;5.95;2.80;;;7.40;78.90;;;;;;4968775;28;20120;-89
2020/12/05 12:05:42;;;;;;;5.40;2.50;;;7.50;79.30;;;;;;4958391;28;20054;-89
2020/12/05 12:08:08;;;;;;;5.85;2.70;;;7.60;78.20;;;;;;4948228;28;20037;-89
2020/12/05 12:10:37;;;;;;;5.68;2.67;;;7.70;77.50;;;;;;4950115;28;20480;-88
2020/12/05 12:13:05;;;;;;;4.20;2.85;;;7.70;77.70;;;;;;4967183;28;20371;-89
2020/12/05 12:15:32;;;;;;;5.72;2.35;;;7.70;77.10;;;;;;4972305;28;20027;-88
2020/12/05 12:17:57;;;;;;;3.85;2.45;;;7.80;77.40;;;;;;4976268;28;20025;-87
2020/12/05 12:20:23;;;;;;;5.20;2.70;;;7.80;77.20;;;;;;4967630;28;20117;-90
2020/12/05 12:22:52;;;;;;;7.18;2.88;;;7.90;76.80;;;;;;4980839;28;20037;-89
2020/12/05 12:25:18;;;;;;;6.45;2.97;;;7.90;77.50;;;;;;4964686;28;20057;-89
2020/12/05 12:27:43;;;;;;;6.20;2.88;;;8.00;76.60;;;;;;4983166;28;20033;-89
2020/12/05 12:30:12;;;;;;;5.25;2.65;;;8.00;76.50;;;;;;4984920;28;20026;-88
2020/12/05 12:32:40;;;;;;;4.40;2.60;;;8.10;76.80;;;;;;4964639;28;20022;-89
2020/12/05 12:35:06;;;;;;;6.78;2.60;;;8.10;75.70;;;;;;4973887;28;20381;-90
2020/12/05 12:37:32;;;;;;;5.95;2.53;;;8.20;76.90;;;;;;4989369;28;20026;-89
2020/12/05 12:39:57;;;;;;;5.93;3.05;;;8.30;75.60;;;;;;4970143;28;20048;-91
2020/12/05 12:42:25;;;;;;;7.20;3.58;;;8.20;75.50;;;;;;4975028;28;20031;-90
2020/12/05 12:44:52;;;;;;;4.35;2.30;;;8.20;75.40;;;;;;4989405;28;20027;-89
2020/12/05 12:49:59;;;;;;;9.20;2.80;;;8.20;75.70;;;;;;4984888;28;20026;-86
2020/12/05 12:52:26;;;;;;;4.82;2.80;;;8.30;76.10;;;;;;4967134;28;20062;-86
2020/12/05 12:54:52;;;;;;;5.35;2.85;;;8.20;75.60;;;;;;4973954;28;20061;-85
2020/12/05 12:57:19;;;;;;;5.72;2.42;;;8.30;75.90;;;;;;4942889;28;20453;-86
2020/12/05 12:59:44;;;;;;;5.78;2.60;;;8.30;75.80;;;;;;4956103;28;20054;-86
2020/12/05 13:02:10;;;;;;;6.15;2.50;;;8.30;75.20;;;;;;4973359;28;20057;-86
2020/12/05 13:04:36;;;;;;;4.75;2.40;;;8.30;74.40;;;;;;4953581;28;20137;-86
2020/12/05 13:07:01;;;;;;;4.13;2.47;;;8.30;73.40;;;;;;4976610;28;20129;-87
2020/12/05 13:09:29;;;;;;;4.05;2.25;;;8.30;74.10;;;;;;4961349;28;20033;-88
2020/12/05 13:11:55;;;;;;;4.82;2.42;;;8.30;74.40;;;;;;4973395;28;20034;-87
2020/12/05 13:14:22;;;;;;;4.55;2.45;;;8.20;73.80;;;;;;4952055;28;20027;-87
2020/12/05 13:16:51;;;;;;;6.82;2.63;;;8.20;74.30;;;;;;4977960;28;20034;-88
2020/12/05 13:19:17;;;;;;;5.65;2.50;;;8.30;73.90;;;;;;4966030;28;20043;-86
2020/12/05 13:21:43;;;;;;;5.03;2.55;;;8.20;74.00;;;;;;4947296;28;20122;-87
2020/12/05 13:24:08;;;;;;;4.70;2.90;;;8.20;74.20;;;;;;4940353;28;20134;-85
2020/12/05 13:26:34;;;;;;;5.22;2.33;;;8.10;74.50;;;;;;4948373;29;20031;-87
2020/12/05 13:29:39;;;;;;;7.57;3.17;;;8.10;74.90;;;;;;4945617;28;20388;-86
2020/12/05 13:32:07;;;;;;;7.18;2.80;;;8.10;75.40;;;;;;4930426;28;20615;-86